createdAt,value
2017-06-22T00:01:34.234Z,6.07
2017-06-22T00:04:01.798Z,6.53
2017-06-22T00:06:29.678Z,7.10
2017-06-22T00:08:57.242Z,6.40
2017-06-22T00:11:24.814Z,6.60
2017-06-22T00:13:52.378Z,6.43
2017-06-22T00:16:19.934Z,6.53
2017-06-22T00:18:47.792Z,7.30
2017-06-22T00:21:15.342Z,7.30
2017-06-22T00:23:42.916Z,6.63
2017-06-22T00:26:10.494Z,7.20
2017-06-22T00:28:38.829Z,7.50
2017-06-22T00:31:06.686Z,7.37
2017-06-22T00:33:34.234Z,7.70
2017-06-22T00:36:01.788Z,7.20
2017-06-22T00:38:29.386Z,6.90
2017-06-22T00:40:56.964Z,7.50
2017-06-22T00:43:25.341Z,8.13
2017-06-22T00:45:53.768Z,7.70
2017-06-22T00:48:21.654Z,7.23
2017-06-22T00:50:49.210Z,7.87
2017-06-22T00:53:16.783Z,7.60
2017-06-22T00:55:44.366Z,7.40
2017-06-22T00:58:12.689Z,7.30
2017-06-22T01:00:40.280Z,7.90
2017-06-22T01:03:07.841Z,8.63
2017-06-22T01:05:35.690Z,7.93
2017-06-22T01:08:03.250Z,8.47
2017-06-22T01:10:30.820Z,7.47
2017-06-22T01:12:58.382Z,8.37
2017-06-22T01:15:25.950Z,9.13
2017-06-22T01:17:53.531Z,7.80
2017-06-22T01:20:21.855Z,9.23
2017-06-22T01:22:49.690Z,8.77
2017-06-22T01:25:17.255Z,8.80
2017-06-22T01:27:44.819Z,9.33
2017-06-22T01:30:12.396Z,8.57
2017-06-22T01:32:39.960Z,8.80
2017-06-22T01:35:07.829Z,9.30
2017-06-22T01:37:35.385Z,8.70
2017-06-22T01:40:02.923Z,8.40
2017-06-22T01:42:30.489Z,8.80
2017-06-22T01:44:58.142Z,8.97
2017-06-22T01:47:26.026Z,10.00
2017-06-22T01:49:53.585Z,8.20
2017-06-22T01:52:21.134Z,9.47
2017-06-22T01:54:48.700Z,8.70
2017-06-22T01:57:16.255Z,9.37
2017-06-22T01:59:44.111Z,8.33
2017-06-22T02:02:11.664Z,8.93
2017-06-22T02:04:39.238Z,7.93
2017-06-22T02:07:06.817Z,8.80
2017-06-22T02:09:34.374Z,9.97
2017-06-22T02:12:02.227Z,8.93
2017-06-22T02:14:29.787Z,8.97
2017-06-22T02:16:57.347Z,9.77
2017-06-22T02:19:25.207Z,9.10
2017-06-22T02:21:52.761Z,9.03
2017-06-22T02:24:20.309Z,9.20
2017-06-22T02:26:48.186Z,8.70
2017-06-22T02:29:15.742Z,8.60
2017-06-22T02:31:43.303Z,8.73
2017-06-22T02:34:10.858Z,8.97
2017-06-22T02:36:38.429Z,9.20
2017-06-22T02:39:05.996Z,10.50
2017-06-22T02:41:33.572Z,9.50
2017-06-22T02:44:01.896Z,9.77
2017-06-22T02:46:29.458Z,8.90
2017-06-22T02:48:57.016Z,9.63
2017-06-22T02:51:24.885Z,9.47
2017-06-22T02:53:52.423Z,10.00
2017-06-22T02:56:19.973Z,9.80
2017-06-22T02:58:47.548Z,9.97
2017-06-22T03:01:15.116Z,9.77
2017-06-22T03:03:42.683Z,9.77
2017-06-22T03:06:10.255Z,9.87
2017-06-22T03:08:38.208Z,10.50
2017-06-22T03:11:05.778Z,10.57
2017-06-22T03:13:33.348Z,10.37
2017-06-22T03:16:00.927Z,10.50
2017-06-22T03:18:29.264Z,9.70
2017-06-22T03:20:56.849Z,10.20
2017-06-22T03:23:24.418Z,9.80
2017-06-22T03:25:52.010Z,10.50
2017-06-22T03:28:19.581Z,9.07
2017-06-22T03:30:47.477Z,9.40
2017-06-22T03:33:15.052Z,9.63
2017-06-22T03:35:42.620Z,9.60
2017-06-22T03:38:10.194Z,10.33
2017-06-22T03:40:38.532Z,9.83
2017-06-22T03:43:06.119Z,10.80
2017-06-22T03:45:34.473Z,10.40
2017-06-22T03:48:02.365Z,10.67
2017-06-22T03:50:30.709Z,10.90
2017-06-22T03:52:58.265Z,9.30
2017-06-22T03:55:25.875Z,11.20
2017-06-22T03:57:54.219Z,10.47
2017-06-22T04:00:21.850Z,11.90
2017-06-22T04:02:49.431Z,10.67
2017-06-22T04:05:17.304Z,11.67
2017-06-22T04:07:44.868Z,11.17
2017-06-22T04:10:12.440Z,10.90
2017-06-22T04:12:40.791Z,10.70
2017-06-22T04:15:08.361Z,10.10
2017-06-22T04:17:36.326Z,10.83
2017-06-22T04:20:03.900Z,10.47
2017-06-22T04:22:32.259Z,10.40
2017-06-22T04:24:59.843Z,11.80
2017-06-22T04:27:28.180Z,12.03
2017-06-22T04:29:55.764Z,11.80
2017-06-22T04:32:23.325Z,12.20
2017-06-22T04:34:51.257Z,10.60
2017-06-22T04:37:18.840Z,11.30
2017-06-22T04:39:46.429Z,12.40
2017-06-22T04:42:14.787Z,11.80
2017-06-22T04:44:42.353Z,11.80
2017-06-22T04:47:09.941Z,11.47
2017-06-22T04:49:37.630Z,12.33
2017-06-22T04:52:05.628Z,11.37
2017-06-22T04:54:33.199Z,11.47
2017-06-22T04:57:00.777Z,11.90
2017-06-22T04:59:28.351Z,11.67
2017-06-22T05:01:55.913Z,11.27
2017-06-22T05:04:23.501Z,11.50
2017-06-22T05:06:51.058Z,11.97
2017-06-22T05:09:18.932Z,10.80
2017-06-22T05:11:46.511Z,11.10
2017-06-22T05:14:14.100Z,11.57
2017-06-22T05:16:41.695Z,11.43
2017-06-22T05:19:09.272Z,12.40
2017-06-22T05:21:36.845Z,10.80
2017-06-22T05:24:04.418Z,11.80
2017-06-22T05:26:33.049Z,11.40
2017-06-22T05:29:00.623Z,11.60
2017-06-22T05:31:28.190Z,11.40
2017-06-22T05:33:55.767Z,11.33
2017-06-22T05:36:23.342Z,10.87
2017-06-22T05:38:52.068Z,11.93
2017-06-22T05:41:19.720Z,10.93
2017-06-22T05:43:47.281Z,11.43
2017-06-22T05:46:14.840Z,12.07
2017-06-22T05:48:42.423Z,11.80
2017-06-22T05:51:10.000Z,11.73
2017-06-22T05:53:37.583Z,11.87
2017-06-22T05:56:06.223Z,11.33
2017-06-22T05:58:33.869Z,10.77
2017-06-22T06:01:01.423Z,11.97
2017-06-22T06:03:29.030Z,11.03
2017-06-22T06:05:57.393Z,11.60
2017-06-22T06:08:25.342Z,11.17
2017-06-22T06:10:52.928Z,10.77
2017-06-22T06:13:20.513Z,11.87
2017-06-22T06:15:48.851Z,12.37
2017-06-22T06:18:16.397Z,10.83
2017-06-22T06:20:43.974Z,11.77
2017-06-22T06:23:11.552Z,11.23
2017-06-22T06:25:40.192Z,12.23
2017-06-22T06:28:07.758Z,11.83
2017-06-22T06:30:35.316Z,12.30
2017-06-22T06:33:02.898Z,12.37
2017-06-22T06:35:30.475Z,12.27
2017-06-22T06:37:59.139Z,11.47
2017-06-22T06:40:26.720Z,10.90
2017-06-22T06:42:55.067Z,11.80
2017-06-22T06:45:22.656Z,11.40
2017-06-22T06:47:50.994Z,11.17
2017-06-22T06:50:18.574Z,11.50
2017-06-22T06:52:46.152Z,12.53
2017-06-22T06:55:14.815Z,11.00
2017-06-22T06:57:42.380Z,11.20
2017-06-22T07:00:09.946Z,10.83
2017-06-22T07:02:37.512Z,11.37
2017-06-22T07:05:05.933Z,11.70
2017-06-22T07:07:33.522Z,11.00
2017-06-22T07:10:01.094Z,11.13
2017-06-22T07:12:28.960Z,11.80
2017-06-22T07:14:56.536Z,11.77
2017-06-22T07:17:24.909Z,11.37
2017-06-22T07:19:53.267Z,11.87
2017-06-22T07:22:20.837Z,11.40
2017-06-22T07:24:48.418Z,12.30
2017-06-22T07:27:16.756Z,11.80
2017-06-22T07:29:44.629Z,11.60
2017-06-22T07:32:12.199Z,11.00
2017-06-22T07:34:40.524Z,11.80
2017-06-22T07:37:08.110Z,10.97
2017-06-22T07:39:35.692Z,11.20
2017-06-22T07:42:03.302Z,11.37
2017-06-22T07:44:30.865Z,11.20
2017-06-22T07:46:58.441Z,9.90
2017-06-22T07:49:26.024Z,11.13
2017-06-22T07:51:53.590Z,10.27
2017-06-22T07:54:21.167Z,10.20
2017-06-22T07:56:48.745Z,10.40
2017-06-22T07:59:16.648Z,9.87
2017-06-22T08:01:44.202Z,8.77
2017-06-22T08:04:11.782Z,10.47
2017-06-22T08:06:39.357Z,9.43
2017-06-22T08:09:07.698Z,9.33
2017-06-22T08:11:35.562Z,9.50
2017-06-22T08:14:03.113Z,9.53
2017-06-22T08:16:30.663Z,9.50
2017-06-22T08:18:58.236Z,8.73
2017-06-22T08:21:25.836Z,9.30
2017-06-22T08:23:54.184Z,8.80
2017-06-22T08:26:21.749Z,9.00
2017-06-22T08:28:49.697Z,9.07
2017-06-22T08:31:17.257Z,9.20
2017-06-22T08:33:44.805Z,8.70
2017-06-22T08:36:12.372Z,8.53
2017-06-22T08:38:39.941Z,9.00
2017-06-22T08:41:07.527Z,9.63
2017-06-22T08:43:35.864Z,9.43
2017-06-22T08:46:03.740Z,9.67
2017-06-22T08:48:31.309Z,8.70
2017-06-22T08:50:58.863Z,9.60
2017-06-22T08:53:26.430Z,10.20
2017-06-22T08:55:54.002Z,10.90
2017-06-22T08:58:22.663Z,10.83
2017-06-22T09:00:50.254Z,9.17
2017-06-22T09:03:18.581Z,9.37
2017-06-22T09:05:46.240Z,9.20
2017-06-22T09:08:13.895Z,9.40
2017-06-22T09:10:41.460Z,9.40
2017-06-22T09:13:09.030Z,8.60
2017-06-22T09:15:36.862Z,9.63
2017-06-22T09:18:04.431Z,8.90
2017-06-22T09:20:31.994Z,9.80
2017-06-22T09:22:59.579Z,9.00
2017-06-22T09:25:27.149Z,9.57
2017-06-22T09:27:54.717Z,9.50
2017-06-22T09:30:27.810Z,9.70
2017-06-22T09:32:56.470Z,9.33
2017-06-22T09:35:24.037Z,9.50
2017-06-22T09:37:51.585Z,9.57
2017-06-22T09:40:19.167Z,9.20
2017-06-22T09:42:47.594Z,9.87
2017-06-22T09:45:15.166Z,9.03
2017-06-22T09:47:42.727Z,9.63
2017-06-22T09:50:10.610Z,8.83
2017-06-22T09:52:38.195Z,9.70
2017-06-22T09:55:06.534Z,8.43
2017-06-22T09:57:34.113Z,8.57
2017-06-22T10:00:01.686Z,8.80
2017-06-22T10:02:30.323Z,9.60
2017-06-22T10:04:57.870Z,9.00
2017-06-22T10:07:25.431Z,8.90
2017-06-22T10:09:53.000Z,9.40
2017-06-22T10:12:20.572Z,8.63
2017-06-22T10:14:48.419Z,9.10
2017-06-22T10:17:16.018Z,9.10
2017-06-22T10:19:43.728Z,8.47
2017-06-22T10:22:11.334Z,9.33
2017-06-22T10:24:38.886Z,9.10
2017-06-22T10:27:06.473Z,8.80
2017-06-22T10:29:34.831Z,9.27
2017-06-22T10:32:02.412Z,9.33
2017-06-22T10:34:30.002Z,9.03
2017-06-22T10:36:57.586Z,9.10
2017-06-22T10:39:25.427Z,8.80
2017-06-22T10:41:52.992Z,8.90
2017-06-22T10:44:20.572Z,8.87
2017-06-22T10:46:48.150Z,8.03
2017-06-22T10:49:15.705Z,8.50
2017-06-22T10:51:43.275Z,9.57
2017-06-22T10:54:11.613Z,9.57
2017-06-22T10:56:39.486Z,8.27
2017-06-22T10:59:07.048Z,8.30
2017-06-22T11:01:34.616Z,9.20
2017-06-22T11:04:02.214Z,8.60
2017-06-22T11:06:30.618Z,8.40
2017-06-22T11:08:58.212Z,8.70
2017-06-22T11:11:25.792Z,8.23
2017-06-22T11:13:54.391Z,8.80
2017-06-22T11:16:21.964Z,8.47
2017-06-22T11:18:49.530Z,8.30
2017-06-22T11:21:17.099Z,7.90
2017-06-22T11:23:44.660Z,8.10
2017-06-22T11:26:12.525Z,7.20
2017-06-22T11:28:40.118Z,6.87
2017-06-22T11:31:07.748Z,7.33
2017-06-22T11:33:35.321Z,7.70
2017-06-22T11:36:02.874Z,8.40
2017-06-22T11:38:30.445Z,7.70
2017-06-22T11:40:58.009Z,7.70
2017-06-22T11:43:25.867Z,7.87
2017-06-22T11:45:53.461Z,7.47
2017-06-22T11:48:21.800Z,7.50
2017-06-22T11:50:49.389Z,7.67
2017-06-22T11:53:17.813Z,8.20
2017-06-22T11:55:45.395Z,8.00
2017-06-22T11:58:11.661Z,7.93
2017-06-22T12:00:38.964Z,8.30
2017-06-22T12:03:05.192Z,8.33
2017-06-22T12:05:31.404Z,8.30
2017-06-22T12:07:57.625Z,8.63
2017-06-22T12:10:23.862Z,7.40
2017-06-22T12:12:50.137Z,6.87
2017-06-22T12:15:16.385Z,7.73
2017-06-22T12:17:42.951Z,7.97
2017-06-22T12:20:09.242Z,8.27
2017-06-22T12:22:35.511Z,7.30
2017-06-22T12:25:01.780Z,7.83
2017-06-22T12:27:28.032Z,7.43
2017-06-22T12:29:54.273Z,7.20
2017-06-22T12:32:20.549Z,7.30
2017-06-22T12:34:47.136Z,7.20
2017-06-22T12:37:13.442Z,7.50
2017-06-22T12:39:40.423Z,6.43
2017-06-22T12:42:06.680Z,6.10
2017-06-22T12:44:32.889Z,6.17
2017-06-22T12:46:59.146Z,6.60
2017-06-22T12:49:25.372Z,7.00
2017-06-22T12:51:51.949Z,6.30
2017-06-22T12:54:18.182Z,6.07
2017-06-22T12:56:44.416Z,6.73
2017-06-22T12:59:10.642Z,6.70
2017-06-22T13:01:36.904Z,7.23
2017-06-22T13:04:03.477Z,6.87
2017-06-22T13:06:30.471Z,6.93
2017-06-22T13:08:56.730Z,6.53
2017-06-22T13:11:22.992Z,5.93
2017-06-22T13:13:49.969Z,6.90
2017-06-22T13:16:16.235Z,7.17
2017-06-22T13:18:42.509Z,6.33
2017-06-22T13:21:09.137Z,6.30
2017-06-22T13:23:35.387Z,6.90
2017-06-22T13:26:01.655Z,6.93
2017-06-22T13:28:27.920Z,7.23
2017-06-22T13:30:54.137Z,7.80
2017-06-22T13:33:20.404Z,7.50
2017-06-22T13:35:46.632Z,7.30
2017-06-22T13:38:13.238Z,5.97
2017-06-22T13:40:40.128Z,6.13
2017-06-22T13:43:06.395Z,6.47
2017-06-22T13:45:32.631Z,9.40
2017-06-22T13:47:59.616Z,7.50
2017-06-22T13:50:25.860Z,8.23
2017-06-22T13:52:52.122Z,6.80
2017-06-22T13:55:18.375Z,7.23
2017-06-22T13:57:44.576Z,7.43
2017-06-22T14:00:11.951Z,6.30
2017-06-22T14:02:38.164Z,6.60
2017-06-22T14:05:04.469Z,7.53
2017-06-22T14:07:30.826Z,6.67
2017-06-22T14:09:57.073Z,6.10
2017-06-22T14:12:23.725Z,6.63
2017-06-22T14:14:49.930Z,6.93
2017-06-22T14:17:16.315Z,7.07
2017-06-22T14:19:42.576Z,7.87
2017-06-22T14:22:08.841Z,7.67
2017-06-22T14:24:35.095Z,7.80
2017-06-22T14:27:01.382Z,7.80
2017-06-22T14:29:28.004Z,7.10
2017-06-22T14:31:54.257Z,7.73
2017-06-22T14:34:20.464Z,7.97
2017-06-22T14:36:46.756Z,7.13
2017-06-22T14:39:13.720Z,7.37
2017-06-22T14:41:41.087Z,7.20
2017-06-22T14:44:07.398Z,8.60
2017-06-22T14:46:34.360Z,7.60
2017-06-22T14:49:00.624Z,7.90
2017-06-22T14:51:26.894Z,7.03
2017-06-22T14:53:53.413Z,6.93
2017-06-22T14:56:19.626Z,6.97
2017-06-22T14:58:45.840Z,7.00
2017-06-22T15:01:12.125Z,7.00
2017-06-22T15:03:38.328Z,6.00
2017-06-22T15:06:04.894Z,6.97
2017-06-22T15:08:31.091Z,7.53
2017-06-22T15:10:57.326Z,6.90
2017-06-22T15:13:24.301Z,5.60
2017-06-22T15:15:50.586Z,6.20
2017-06-22T15:18:17.964Z,5.97
2017-06-22T15:20:44.978Z,5.70
2017-06-22T15:23:13.281Z,6.30
2017-06-22T15:25:40.284Z,6.70
2017-06-22T15:28:06.541Z,6.20
2017-06-22T15:30:32.779Z,6.50
2017-06-22T15:32:59.742Z,6.37
2017-06-22T15:35:26.256Z,6.33
2017-06-22T15:37:53.214Z,6.40
2017-06-22T15:40:19.475Z,6.03
2017-06-22T15:42:45.738Z,6.53
2017-06-22T15:45:11.981Z,6.70
2017-06-22T15:47:38.991Z,6.33
2017-06-22T15:50:05.217Z,7.20
2017-06-22T15:52:31.817Z,7.70
2017-06-22T15:54:58.104Z,6.73
2017-06-22T15:57:24.323Z,7.30
2017-06-22T15:59:50.576Z,7.30
2017-06-22T16:02:17.551Z,6.60
2017-06-22T16:04:43.819Z,7.00
2017-06-22T16:07:10.046Z,7.30
2017-06-22T16:09:36.269Z,7.20
2017-06-22T16:12:02.561Z,6.73
2017-06-22T16:14:28.851Z,7.03
2017-06-22T16:16:55.436Z,7.23
2017-06-22T16:19:21.673Z,7.37
2017-06-22T16:21:47.952Z,7.33
2017-06-22T16:24:14.926Z,7.37
2017-06-22T16:26:41.170Z,7.43
2017-06-22T16:29:07.462Z,7.13
2017-06-22T16:31:33.737Z,7.80
2017-06-22T16:34:00.342Z,7.43
2017-06-22T16:36:26.617Z,7.10
2017-06-22T16:38:52.841Z,7.27
2017-06-22T16:41:19.446Z,8.30
2017-06-22T16:43:45.741Z,7.60
2017-06-22T16:46:12.709Z,7.83
2017-06-22T16:48:38.968Z,8.47
2017-06-22T16:51:05.666Z,7.80
2017-06-22T16:53:31.897Z,8.10
2017-06-22T16:55:58.155Z,8.03
2017-06-22T16:58:24.504Z,7.53
2017-06-22T17:00:50.761Z,7.80
2017-06-22T17:03:17.165Z,8.23
2017-06-22T17:05:43.497Z,7.70
2017-06-22T17:08:10.694Z,7.30
2017-06-22T17:10:36.959Z,8.00
2017-06-22T17:13:04.063Z,9.43
2017-06-22T17:15:30.392Z,9.10
2017-06-22T17:17:56.677Z,8.47
2017-06-22T17:20:23.293Z,9.40
2017-06-22T17:22:49.563Z,7.70
2017-06-22T17:25:16.526Z,9.37
2017-06-22T17:27:42.786Z,8.73
2017-06-22T17:30:08.993Z,8.40
2017-06-22T17:32:35.245Z,9.27
2017-06-22T17:35:02.100Z,9.20
2017-06-22T17:37:28.813Z,9.23
2017-06-22T17:39:55.700Z,8.90
2017-06-22T17:42:22.062Z,9.37
2017-06-22T17:44:48.719Z,8.90
2017-06-22T17:47:15.138Z,9.27
2017-06-22T17:49:41.766Z,9.10
2017-06-22T17:52:07.993Z,9.47
2017-06-22T17:54:34.248Z,8.77
2017-06-22T17:57:00.563Z,8.97
2017-06-22T17:59:26.803Z,8.83
2017-06-22T18:01:53.439Z,9.47
2017-06-22T18:04:19.729Z,9.63
2017-06-22T18:06:46.735Z,9.80
2017-06-22T18:09:13.014Z,9.87
2017-06-22T18:11:39.684Z,9.50
2017-06-22T18:14:06.004Z,9.63
2017-06-22T18:16:32.252Z,9.60
2017-06-22T18:18:58.852Z,8.77
2017-06-22T18:21:25.143Z,9.80
2017-06-22T18:23:51.410Z,9.17
2017-06-22T18:26:17.708Z,9.40
2017-06-22T18:28:43.945Z,8.63
2017-06-22T18:31:11.002Z,9.23
2017-06-22T18:33:37.246Z,10.27
2017-06-22T18:36:03.780Z,10.23
2017-06-22T18:38:30.405Z,10.60
2017-06-22T18:40:56.718Z,10.60
2017-06-22T18:43:23.764Z,9.63
2017-06-22T18:45:50.762Z,10.10
2017-06-22T18:48:17.389Z,10.90
2017-06-22T18:50:43.608Z,9.67
2017-06-22T18:53:09.930Z,10.17
2017-06-22T18:55:36.227Z,10.43
2017-06-22T18:58:02.433Z,10.20
2017-06-22T19:00:28.730Z,9.57
2017-06-22T19:02:55.035Z,9.77
2017-06-22T19:05:21.571Z,9.67
2017-06-22T19:07:47.873Z,10.77
2017-06-22T19:10:14.146Z,10.53
2017-06-22T19:12:40.443Z,10.20
2017-06-22T19:15:07.884Z,10.07
2017-06-22T19:17:34.181Z,10.00
2017-06-22T19:20:00.431Z,10.00
2017-06-22T19:22:26.753Z,10.53
2017-06-22T19:24:53.015Z,12.53
2017-06-22T19:27:20.003Z,11.90
2017-06-22T19:29:47.051Z,12.13
2017-06-22T19:32:13.304Z,11.53
2017-06-22T19:34:39.608Z,10.33
2017-06-22T19:37:06.229Z,11.93
2017-06-22T19:39:32.516Z,11.00
2017-06-22T19:41:59.819Z,11.50
2017-06-22T19:44:26.101Z,11.63
2017-06-22T19:46:53.162Z,11.77
2017-06-22T19:49:20.452Z,11.43
2017-06-22T19:51:46.746Z,12.27
2017-06-22T19:54:13.374Z,12.10
2017-06-22T19:56:40.383Z,11.30
2017-06-22T19:59:06.659Z,10.77
2017-06-22T20:01:32.968Z,11.67
2017-06-22T20:03:59.981Z,11.27
2017-06-22T20:06:26.239Z,11.07
2017-06-22T20:08:53.224Z,11.90
2017-06-22T20:11:19.862Z,11.03
2017-06-22T20:13:46.105Z,11.80
2017-06-22T20:16:12.334Z,11.30
2017-06-22T20:18:38.656Z,11.17
2017-06-22T20:21:04.980Z,10.60
2017-06-22T20:23:31.236Z,11.37
2017-06-22T20:25:57.544Z,11.00
2017-06-22T20:28:24.327Z,11.50
2017-06-22T20:30:51.357Z,12.00
2017-06-22T20:33:17.635Z,11.40
2017-06-22T20:35:43.935Z,11.83
2017-06-22T20:38:10.923Z,12.10
2017-06-22T20:40:37.444Z,11.70
2017-06-22T20:43:03.685Z,11.00
2017-06-22T20:45:29.930Z,11.93
2017-06-22T20:47:56.208Z,11.40
2017-06-22T20:50:22.429Z,11.30
2017-06-22T20:52:49.697Z,11.30
2017-06-22T20:55:15.941Z,10.93
2017-06-22T20:57:42.200Z,11.47
2017-06-22T21:00:08.466Z,11.83
2017-06-22T21:02:35.507Z,11.33
2017-06-22T21:05:02.835Z,11.20
2017-06-22T21:07:29.069Z,10.90
2017-06-22T21:09:55.307Z,10.90
2017-06-22T21:12:21.627Z,11.97
2017-06-22T21:14:47.886Z,11.60
2017-06-22T21:17:14.886Z,11.60
2017-06-22T21:19:41.401Z,11.97
2017-06-22T21:22:08.016Z,11.77
2017-06-22T21:24:34.275Z,10.83
2017-06-22T21:27:00.845Z,11.00
2017-06-22T21:29:27.258Z,11.23
2017-06-22T21:31:53.552Z,10.30
2017-06-22T21:34:20.186Z,10.10
2017-06-22T21:36:46.429Z,10.97
2017-06-22T21:39:13.060Z,10.93
2017-06-22T21:41:39.537Z,10.43
2017-06-22T21:44:05.783Z,10.70
2017-06-22T21:46:32.777Z,10.13
2017-06-22T21:48:59.420Z,10.90
2017-06-22T21:51:25.704Z,10.70
2017-06-22T21:53:51.936Z,10.60
2017-06-22T21:56:18.459Z,10.00
2017-06-22T21:58:45.457Z,10.50
2017-06-22T22:01:11.676Z,10.60
2017-06-22T22:03:37.910Z,10.77
2017-06-22T22:06:04.127Z,10.30
2017-06-22T22:08:30.718Z,10.67
2017-06-22T22:10:57.697Z,10.73
2017-06-22T22:13:23.931Z,10.43
2017-06-22T22:15:50.165Z,10.60
2017-06-22T22:18:16.377Z,11.00
2017-06-22T22:20:42.636Z,10.80
2017-06-22T22:23:08.876Z,10.27
2017-06-22T22:25:35.117Z,10.83
2017-06-22T22:28:01.352Z,10.27
2017-06-22T22:30:28.709Z,11.90
2017-06-22T22:32:55.680Z,10.50
2017-06-22T22:35:21.904Z,11.03
2017-06-22T22:37:48.136Z,11.40
2017-06-22T22:40:14.353Z,11.37
2017-06-22T22:42:41.035Z,9.90
2017-06-22T22:45:07.265Z,9.90
2017-06-22T22:47:33.531Z,10.40
2017-06-22T22:50:00.518Z,9.73
2017-06-22T22:52:26.804Z,10.00
2017-06-22T22:54:54.151Z,9.93
2017-06-22T22:57:21.136Z,10.10
2017-06-22T22:59:47.336Z,10.13
2017-06-22T23:02:13.593Z,9.60
2017-06-22T23:04:39.834Z,10.20
2017-06-22T23:07:06.147Z,10.13
2017-06-22T23:09:32.395Z,10.30
2017-06-22T23:11:58.921Z,9.90
2017-06-22T23:14:25.166Z,10.20
2017-06-22T23:16:51.419Z,9.23
2017-06-22T23:19:17.696Z,10.47
2017-06-22T23:21:43.962Z,10.10
2017-06-22T23:24:10.209Z,10.93
2017-06-22T23:26:37.175Z,10.07
2017-06-22T23:29:03.701Z,9.37
2017-06-22T23:31:29.953Z,10.13
2017-06-22T23:33:56.212Z,9.53
2017-06-22T23:36:22.462Z,10.57
2017-06-22T23:38:49.489Z,10.27
2017-06-22T23:41:15.718Z,11.10
2017-06-22T23:43:41.966Z,10.60
2017-06-22T23:46:09.232Z,10.70
2017-06-22T23:48:35.469Z,10.27
2017-06-22T23:51:01.690Z,11.10
2017-06-22T23:53:27.962Z,10.37
2017-06-22T23:55:54.194Z,11.23
2017-06-22T23:58:20.737Z,10.70
